Time,TemperatureF,DewpointF,PressureIn,WindDirection,WindDirectionDegrees,WindSpeedMPH,WindSpeedGustMPH,Humidity,HourlyPrecipIn,Conditions,Clouds,dailyrainin,SoftwareType,DateUTC
2013-04-02 00:08:00,29.3,23.0,30.16,WNW,287,0.0,0.0,76,0.00,,,0.00,weatherlink.com 1.10,2013-04-02 04:08:00,
2013-04-02 00:23:00,28.8,22.0,30.16,WNW,287,0.0,0.0,76,0.00,,,0.00,weatherlink.com 1.10,2013-04-02 04:23:00,
2013-04-02 00:38:00,28.5,22.0,30.16,WNW,287,0.0,0.0,77,0.00,,,0.00,weatherlink.com 1.10,2013-04-02 04:38:00,
2013-04-02 00:53:00,28.2,22.0,30.16,WNW,287,0.0,0.0,76,0.00,,,0.00,weatherlink.com 1.10,2013-04-02 04:53:00,
2013-04-02 01:08:00,27.9,22.0,30.16,WNW,287,0.0,0.0,79,0.00,,,0.00,weatherlink.com 1.10,2013-04-02 05:08:00,
2013-04-02 01:23:00,27.6,22.0,30.17,WNW,287,0.0,0.0,79,0.00,,,0.00,weatherlink.com 1.10,2013-04-02 05:23:00,
2013-04-02 01:39:00,27.4,22.0,30.17,WNW,287,0.0,0.0,79,0.00,,,0.00,weatherlink.com 1.10,2013-04-02 05:39:00,
2013-04-02 01:53:00,27.1,22.0,30.18,WNW,287,0.0,2.0,80,0.00,,,0.00,weatherlink.com 1.10,2013-04-02 05:53:00,
2013-04-02 02:08:00,26.9,22.0,30.18,WNW,287,0.0,0.0,82,0.00,,,0.00,weatherlink.com 1.10,2013-04-02 06:08:00,
2013-04-02 02:23:00,26.6,22.0,30.19,WNW,287,0.0,0.0,82,0.00,,,0.00,weatherlink.com 1.10,2013-04-02 06:23:00,
2013-04-02 02:38:00,26.5,22.0,30.19,WNW,287,0.0,0.0,82,0.00,,,0.00,weatherlink.com 1.10,2013-04-02 06:38:00,
2013-04-02 02:53:00,26.5,22.0,30.19,WNW,287,0.0,0.0,82,0.00,,,0.00,weatherlink.com 1.10,2013-04-02 06:53:00,
2013-04-02 03:08:00,26.7,22.0,30.19,WNW,287,0.0,0.0,83,0.00,,,0.00,weatherlink.com 1.10,2013-04-02 07:08:00,
2013-04-02 03:23:00,26.3,22.0,30.19,WNW,287,0.0,0.0,82,0.00,,,0.00,weatherlink.com 1.10,2013-04-02 07:23:00,
2013-04-02 03:38:00,25.9,21.0,30.19,WNW,287,0.0,0.0,82,0.00,,,0.00,weatherlink.com 1.10,2013-04-02 07:38:00,
2013-04-02 03:53:00,25.4,21.0,30.19,WNW,287,0.0,0.0,83,0.00,,,0.00,weatherlink.com 1.10,2013-04-02 07:53:00,
2013-04-02 04:09:00,25.0,21.0,30.20,WNW,287,0.0,0.0,84,0.00,,,0.00,weatherlink.com 1.10,2013-04-02 08:09:00,
2013-04-02 04:24:00,24.5,20.0,30.21,WNW,287,0.0,0.0,84,0.00,,,0.00,weatherlink.com 1.10,2013-04-02 08:24:00,
2013-04-02 04:39:00,24.2,20.0,30.21,WNW,287,0.0,0.0,84,0.00,,,0.00,weatherlink.com 1.10,2013-04-02 08:39:00,
2013-04-02 04:54:00,23.9,20.0,30.21,WNW,287,0.0,0.0,85,0.00,,,0.00,weatherlink.com 1.10,2013-04-02 08:54:00,
2013-04-02 05:09:00,23.5,20.0,30.22,WNW,287,0.0,0.0,85,0.00,,,0.00,weatherlink.com 1.10,2013-04-02 09:09:00,
2013-04-02 05:24:00,23.1,20.0,30.22,WNW,287,0.0,0.0,86,0.00,,,0.00,weatherlink.com 1.10,2013-04-02 09:24:00,
2013-04-02 05:39:00,22.9,20.0,30.23,WNW,287,0.0,0.0,87,0.00,,,0.00,weatherlink.com 1.10,2013-04-02 09:39:00,
2013-04-02 05:54:00,22.7,19.0,30.24,WNW,287,0.0,0.0,87,0.00,,,0.00,weatherlink.com 1.10,2013-04-02 09:54:00,
2013-04-02 06:09:00,22.4,19.0,30.24,WNW,287,0.0,0.0,87,0.00,,,0.00,weatherlink.com 1.10,2013-04-02 10:09:00,
2013-04-02 06:24:00,22.1,19.0,30.24,WNW,287,0.0,0.0,87,0.00,,,0.00,weatherlink.com 1.10,2013-04-02 10:24:00,
2013-04-02 06:39:00,21.9,19.0,30.25,WNW,287,0.0,0.0,88,0.00,,,0.00,weatherlink.com 1.10,2013-04-02 10:39:00,
2013-04-02 06:54:00,21.6,19.0,30.25,WNW,287,0.0,0.0,88,0.00,,,0.00,weatherlink.com 1.10,2013-04-02 10:54:00,
2013-04-02 07:09:00,21.3,19.0,30.25,WNW,287,0.0,0.0,89,0.00,,,0.00,weatherlink.com 1.10,2013-04-02 11:09:00,
2013-04-02 07:24:00,21.1,18.0,30.25,WNW,287,0.0,0.0,89,0.00,,,0.00,weatherlink.com 1.10,2013-04-02 11:24:00,
2013-04-02 07:39:00,21.0,19.0,30.26,WNW,287,0.0,0.0,90,0.00,,,0.00,weatherlink.com 1.10,2013-04-02 11:39:00,
2013-04-02 07:54:00,20.8,18.0,30.27,WNW,287,0.0,0.0,90,0.00,,,0.00,weatherlink.com 1.10,2013-04-02 11:54:00,
2013-04-02 08:09:00,20.9,19.0,30.27,WNW,288,0.0,0.0,90,0.00,,,0.00,weatherlink.com 1.10,2013-04-02 12:09:00,
2013-04-02 08:24:00,21.5,19.0,30.28,WNW,288,0.0,0.0,91,0.00,,,0.00,weatherlink.com 1.10,2013-04-02 12:24:00,
2013-04-02 08:39:00,23.6,22.0,30.29,WNW,286,0.0,2.0,92,0.00,,,0.00,weatherlink.com 1.10,2013-04-02 12:39:00,
2013-04-02 08:54:00,26.0,24.0,30.30,WNW,286,0.0,0.0,90,0.00,,,0.00,weatherlink.com 1.10,2013-04-02 12:54:00,
2013-04-02 09:09:00,28.7,25.0,30.30,West,280,1.0,3.0,86,0.00,,,0.00,weatherlink.com 1.10,2013-04-02 13:09:00,
2013-04-02 09:24:00,31.9,23.0,30.30,NW,315,1.0,5.0,69,0.00,,,0.00,weatherlink.com 1.10,2013-04-02 13:24:00,
2013-04-02 09:39:00,33.8,22.0,30.31,NNW,346,3.0,7.0,63,0.00,,,0.00,weatherlink.com 1.10,2013-04-02 13:39:00,
2013-04-02 09:54:00,35.0,22.0,30.31,NW,316,3.0,6.0,60,0.00,,,0.00,weatherlink.com 1.10,2013-04-02 13:54:00,
2013-04-02 10:10:00,35.9,21.0,30.30,NNW,328,1.0,5.0,55,0.00,,,0.00,weatherlink.com 1.10,2013-04-02 14:10:00,
2013-04-02 10:25:00,36.6,22.0,30.30,NNE,15,1.0,6.0,55,0.00,,,0.00,weatherlink.com 1.10,2013-04-02 14:25:00,
2013-04-02 10:40:00,37.3,21.0,30.30,NNW,332,0.0,6.0,51,0.00,,,0.00,weatherlink.com 1.10,2013-04-02 14:40:00,
2013-04-02 10:55:00,37.7,22.0,30.31,NNE,30,4.0,6.0,53,0.00,,,0.00,weatherlink.com 1.10,2013-04-02 14:55:00,
2013-04-02 11:10:00,38.3,21.0,30.31,SW,221,3.0,6.0,50,0.00,,,0.00,weatherlink.com 1.10,2013-04-02 15:10:00,
2013-04-02 11:25:00,39.7,22.0,30.31,SW,235,4.0,7.0,49,0.00,,,0.00,weatherlink.com 1.10,2013-04-02 15:25:00,
2013-04-02 11:40:00,40.0,19.0,30.30,WSW,257,3.0,5.0,43,0.00,,,0.00,weatherlink.com 1.10,2013-04-02 15:40:00,
2013-04-02 12:10:00,41.9,19.0,30.30,NNW,336,0.0,13.0,40,0.00,,,0.00,weatherlink.com 1.10,2013-04-02 16:10:00,
2013-04-02 12:25:00,43.7,21.0,30.30,ESE,118,2.0,4.0,41,0.00,,,0.00,weatherlink.com 1.10,2013-04-02 16:25:00,
2013-04-02 12:40:00,44.6,20.0,30.30,West,280,1.0,8.0,37,0.00,,,0.00,weatherlink.com 1.10,2013-04-02 16:40:00,
2013-04-02 12:55:00,44.9,19.0,30.29,WSW,238,1.0,14.0,35,0.00,,,0.00,weatherlink.com 1.10,2013-04-02 16:55:00,
2013-04-02 13:10:00,45.6,19.0,30.28,NE,49,5.0,10.0,34,0.00,,,0.00,weatherlink.com 1.10,2013-04-02 17:10:00,
2013-04-02 13:25:00,46.1,19.0,30.27,SW,234,3.0,6.0,34,0.00,,,0.00,weatherlink.com 1.10,2013-04-02 17:25:00,
2013-04-02 13:40:00,45.9,18.0,30.27,NNW,330,2.0,5.0,33,0.00,,,0.00,weatherlink.com 1.10,2013-04-02 17:40:00,
2013-04-02 13:55:00,48.3,20.0,30.26,NNE,22,0.0,8.0,33,0.00,,,0.00,weatherlink.com 1.10,2013-04-02 17:55:00,
2013-04-02 14:10:00,48.4,20.0,30.25,North,5,4.0,10.0,32,0.00,,,0.00,weatherlink.com 1.10,2013-04-02 18:10:00,
2013-04-02 14:25:00,48.0,19.0,30.25,SW,223,0.0,7.0,32,0.00,,,0.00,weatherlink.com 1.10,2013-04-02 18:25:00,
2013-04-02 14:40:00,48.5,20.0,30.24,West,262,0.0,13.0,32,0.00,,,0.00,weatherlink.com 1.10,2013-04-02 18:40:00,
2013-04-02 14:55:00,50.9,19.0,30.24,East,100,2.0,7.0,28,0.00,,,0.00,weatherlink.com 1.10,2013-04-02 18:55:00,
2013-04-02 15:10:00,51.0,22.0,30.23,SW,236,1.0,8.0,32,0.00,,,0.00,weatherlink.com 1.10,2013-04-02 19:10:00,
2013-04-02 15:25:00,51.4,19.0,30.23,WNW,300,4.0,9.0,28,0.00,,,0.00,weatherlink.com 1.10,2013-04-02 19:25:00,
2013-04-02 15:40:00,52.3,16.0,30.23,WNW,302,2.0,9.0,24,0.00,,,0.00,weatherlink.com 1.10,2013-04-02 19:40:00,
2013-04-02 15:55:00,51.5,17.0,30.23,North,5,1.0,8.0,26,0.00,,,0.00,weatherlink.com 1.10,2013-04-02 19:55:00,
2013-04-02 16:10:00,52.2,14.0,30.22,NW,323,1.0,10.0,22,0.00,,,0.00,weatherlink.com 1.10,2013-04-02 20:10:00,
2013-04-02 16:25:00,51.7,15.0,30.22,SW,235,5.0,10.0,23,0.00,,,0.00,weatherlink.com 1.10,2013-04-02 20:25:00,
2013-04-02 16:40:00,51.7,15.0,30.22,West,267,0.0,10.0,23,0.00,,,0.00,weatherlink.com 1.10,2013-04-02 20:40:00,
2013-04-02 16:55:00,51.1,16.0,30.22,WNW,282,4.0,11.0,25,0.00,,,0.00,weatherlink.com 1.10,2013-04-02 20:55:00,
2013-04-02 17:10:00,50.4,17.0,30.22,SSW,211,7.0,8.0,26,0.00,,,0.00,weatherlink.com 1.10,2013-04-02 21:10:00,
2013-04-02 17:25:00,50.4,13.0,30.22,SW,232,5.0,10.0,22,0.00,,,0.00,weatherlink.com 1.10,2013-04-02 21:25:00,
2013-04-02 17:40:00,49.7,16.0,30.23,NW,321,3.0,14.0,26,0.00,,,0.00,weatherlink.com 1.10,2013-04-02 21:40:00,
2013-04-02 17:55:00,50.7,18.0,30.22,NW,308,2.0,5.0,28,0.00,,,0.00,weatherlink.com 1.10,2013-04-02 21:55:00,
2013-04-02 18:10:00,49.8,19.0,30.22,SW,219,3.0,7.0,30,0.00,,,0.00,weatherlink.com 1.10,2013-04-02 22:10:00,
2013-04-02 18:25:00,49.0,18.0,30.22,West,267,4.0,10.0,29,0.00,,,0.00,weatherlink.com 1.10,2013-04-02 22:25:00,
2013-04-02 18:40:00,49.1,17.0,30.23,West,271,4.0,11.0,28,0.00,,,0.00,weatherlink.com 1.10,2013-04-02 22:40:00,
2013-04-02 18:55:00,48.6,11.0,30.23,WNW,292,5.0,9.0,22,0.00,,,0.00,weatherlink.com 1.10,2013-04-02 22:55:00,
2013-04-02 19:10:00,47.1,11.0,30.23,NNW,330,0.0,8.0,23,0.00,,,0.00,weatherlink.com 1.10,2013-04-02 23:10:00,
2013-04-02 19:25:00,46.1,18.0,30.23,West,268,4.0,7.0,32,0.00,,,0.00,weatherlink.com 1.10,2013-04-02 23:25:00,
2013-04-02 19:40:00,45.4,18.0,30.24,SW,233,1.0,6.0,33,0.00,,,0.00,weatherlink.com 1.10,2013-04-02 23:40:00,
2013-04-02 19:55:00,44.7,16.0,30.24,NW,324,0.0,1.0,31,0.00,,,0.00,weatherlink.com 1.10,2013-04-02 23:55:00,
2013-04-02 20:10:00,43.9,18.0,30.24,WNW,284,1.0,4.0,35,0.00,,,0.00,weatherlink.com 1.10,2013-04-03 00:10:00,
2013-04-02 20:40:00,42.0,19.0,30.25,WNW,284,0.0,1.0,39,0.00,,,0.00,weatherlink.com 1.10,2013-04-03 00:40:00,
2013-04-02 21:10:00,37.8,20.0,30.26,WNW,285,0.0,2.0,48,0.00,,,0.00,weatherlink.com 1.10,2013-04-03 01:10:00,
2013-04-02 21:26:00,36.3,20.0,30.26,WNW,287,0.0,0.0,51,0.00,,,0.00,weatherlink.com 1.10,2013-04-03 01:26:00,
2013-04-02 21:41:00,35.1,19.0,30.27,WNW,287,0.0,1.0,53,0.00,,,0.00,weatherlink.com 1.10,2013-04-03 01:41:00,
2013-04-02 21:56:00,34.1,21.0,30.28,WNW,287,0.0,0.0,58,0.00,,,0.00,weatherlink.com 1.10,2013-04-03 01:56:00,
2013-04-02 22:11:00,33.0,20.0,30.28,WNW,287,0.0,0.0,60,0.00,,,0.00,weatherlink.com 1.10,2013-04-03 02:11:00,
2013-04-02 22:26:00,32.1,21.0,30.29,WNW,287,0.0,0.0,64,0.00,,,0.00,weatherlink.com 1.10,2013-04-03 02:26:00,
2013-04-02 22:41:00,31.3,20.0,30.29,WNW,287,0.0,0.0,64,0.00,,,0.00,weatherlink.com 1.10,2013-04-03 02:41:00,
2013-04-02 22:56:00,30.7,19.0,30.29,WNW,287,0.0,0.0,62,0.00,,,0.00,weatherlink.com 1.10,2013-04-03 02:56:00,
2013-04-02 23:26:00,29.7,19.0,30.29,WNW,287,0.0,0.0,65,0.00,,,0.00,weatherlink.com 1.10,2013-04-03 03:26:00,
2013-04-02 23:41:00,29.3,20.0,30.29,WNW,287,0.0,0.0,68,0.00,,,0.00,weatherlink.com 1.10,2013-04-03 03:41:00,
2013-04-02 23:56:00,28.9,19.0,30.29,WNW,287,0.0,0.0,67,0.00,,,0.00,weatherlink.com 1.10,2013-04-03 03:56:00,